createdAt,value
2017-07-18T00:00:27.836Z,0
2017-07-18T00:01:30.272Z,0
2017-07-18T00:02:33.370Z,0
2017-07-18T00:03:35.470Z,0
2017-07-18T00:04:38.277Z,0
2017-07-18T00:05:40.370Z,0
2017-07-18T00:06:42.458Z,0
2017-07-18T00:07:44.899Z,0
2017-07-18T00:08:47.356Z,0
2017-07-18T00:09:49.436Z,0
2017-07-18T00:10:51.861Z,0
2017-07-18T00:11:53.930Z,0
2017-07-18T00:12:56.021Z,0
2017-07-18T00:13:58.475Z,0
2017-07-18T00:15:00.898Z,0
2017-07-18T00:16:04.364Z,0
2017-07-18T00:17:06.450Z,0
2017-07-18T00:18:09.253Z,0
2017-07-18T00:19:11.684Z,0
2017-07-18T00:20:14.132Z,0
2017-07-18T00:21:16.568Z,0
2017-07-18T00:22:18.675Z,0
2017-07-18T00:23:20.755Z,0
2017-07-18T00:24:22.852Z,0
2017-07-18T00:25:25.295Z,0
2017-07-18T00:26:27.403Z,0
2017-07-18T00:27:29.488Z,0
2017-07-18T00:28:31.615Z,0
2017-07-18T00:29:33.747Z,0
2017-07-18T00:30:36.204Z,0
2017-07-18T00:31:38.291Z,0
2017-07-18T00:32:40.746Z,0
2017-07-18T00:33:43.178Z,0
2017-07-18T00:34:45.599Z,0
2017-07-18T00:35:47.696Z,0
2017-07-18T00:36:50.135Z,0
2017-07-18T00:37:52.207Z,0
2017-07-18T00:38:54.651Z,0
2017-07-18T00:39:57.078Z,0
2017-07-18T00:40:59.165Z,0
2017-07-18T00:42:01.950Z,0
2017-07-18T00:43:04.694Z,0
2017-07-18T00:44:06.803Z,0
2017-07-18T00:45:08.915Z,0
2017-07-18T00:46:11.362Z,0
2017-07-18T00:47:13.440Z,0
2017-07-18T00:48:15.885Z,0
2017-07-18T00:49:17.972Z,0
2017-07-18T00:50:20.408Z,0
2017-07-18T00:51:22.504Z,0
2017-07-18T00:52:24.955Z,0
2017-07-18T00:53:27.396Z,0
2017-07-18T00:54:29.820Z,0
2017-07-18T00:55:32.254Z,0
2017-07-18T00:56:34.715Z,0
2017-07-18T00:57:36.798Z,0
2017-07-18T00:58:39.580Z,0
2017-07-18T00:59:41.709Z,0
2017-07-18T01:00:43.812Z,0
2017-07-18T01:01:46.245Z,0
2017-07-18T01:02:48.348Z,0
2017-07-18T01:03:50.447Z,0
2017-07-18T01:04:52.531Z,0
2017-07-18T01:05:54.612Z,0
2017-07-18T01:06:56.679Z,0
2017-07-18T01:07:58.762Z,0
2017-07-18T01:09:00.842Z,0
2017-07-18T01:10:03.316Z,0
2017-07-18T01:11:05.406Z,0
2017-07-18T01:12:08.868Z,0
2017-07-18T01:13:11.660Z,0
2017-07-18T01:14:14.102Z,0
2017-07-18T01:15:16.193Z,0
2017-07-18T01:16:18.666Z,0
2017-07-18T01:17:20.744Z,0
2017-07-18T01:18:22.851Z,0
2017-07-18T01:19:25.294Z,0
2017-07-18T01:20:27.726Z,0
2017-07-18T01:21:29.825Z,0
2017-07-18T01:22:32.249Z,0
2017-07-18T01:23:34.351Z,0
2017-07-18T01:24:36.455Z,0
2017-07-18T01:25:38.889Z,0
2017-07-18T01:26:40.999Z,0
2017-07-18T01:27:43.092Z,0
2017-07-18T01:28:45.527Z,0
2017-07-18T01:29:47.631Z,0
2017-07-18T01:30:49.728Z,0
2017-07-18T01:31:51.813Z,0
2017-07-18T01:32:53.896Z,0
2017-07-18T01:33:56.019Z,0
2017-07-18T01:34:58.086Z,0
2017-07-18T01:36:00.171Z,0
2017-07-18T01:37:02.946Z,0
2017-07-18T01:38:05.400Z,0
2017-07-18T01:39:07.488Z,0
2017-07-18T01:40:10.600Z,0
2017-07-18T01:41:12.684Z,0
2017-07-18T01:42:15.466Z,0
2017-07-18T01:43:17.900Z,0
2017-07-18T01:44:20.007Z,0
2017-07-18T01:45:22.105Z,0
2017-07-18T01:46:24.877Z,0
2017-07-18T01:47:26.973Z,0
2017-07-18T01:48:29.079Z,0
2017-07-18T01:49:31.181Z,0
2017-07-18T01:50:33.265Z,0
2017-07-18T01:51:35.368Z,0
2017-07-18T01:52:37.466Z,0
2017-07-18T01:53:39.891Z,0
2017-07-18T01:54:42.665Z,0
2017-07-18T01:55:45.092Z,0
2017-07-18T01:56:47.535Z,0
2017-07-18T01:57:49.971Z,0
2017-07-18T01:58:53.063Z,0
2017-07-18T01:59:55.485Z,0
2017-07-18T02:00:57.575Z,0
2017-07-18T02:01:59.669Z,0
2017-07-18T02:03:02.434Z,0
2017-07-18T02:04:04.880Z,0
2017-07-18T02:05:07.385Z,0
2017-07-18T02:06:09.841Z,0
2017-07-18T02:07:11.943Z,0
2017-07-18T02:08:14.379Z,0
2017-07-18T02:09:16.458Z,0
2017-07-18T02:10:18.562Z,0
2017-07-18T02:11:20.687Z,0
2017-07-18T02:12:23.133Z,0
2017-07-18T02:13:25.242Z,0
2017-07-18T02:14:27.346Z,0
2017-07-18T02:15:29.414Z,0
2017-07-18T02:16:31.549Z,0
2017-07-18T02:17:33.976Z,0
2017-07-18T02:18:36.058Z,0
2017-07-18T02:19:38.488Z,0
2017-07-18T02:20:40.931Z,0
2017-07-18T02:21:43.713Z,0
2017-07-18T02:22:46.157Z,0
2017-07-18T02:23:48.591Z,0
2017-07-18T02:24:50.694Z,0
2017-07-18T02:25:52.791Z,0
2017-07-18T02:26:55.258Z,0
2017-07-18T02:27:57.344Z,0
2017-07-18T02:28:59.776Z,0
2017-07-18T02:30:02.565Z,0
2017-07-18T02:31:04.982Z,0
2017-07-18T02:32:08.841Z,0
2017-07-18T02:33:10.938Z,0
2017-07-18T02:34:13.715Z,0
2017-07-18T02:35:16.171Z,0
2017-07-18T02:36:18.608Z,0
2017-07-18T02:37:21.058Z,0
2017-07-18T02:38:23.500Z,0
2017-07-18T02:39:25.930Z,0
2017-07-18T02:40:28.372Z,0
2017-07-18T02:41:30.487Z,0
2017-07-18T02:42:33.305Z,0
2017-07-18T02:43:35.757Z,0
2017-07-18T02:44:38.232Z,0
2017-07-18T02:45:40.324Z,0
2017-07-18T02:46:43.456Z,0
2017-07-18T02:47:45.565Z,0
2017-07-18T02:48:48.729Z,0
2017-07-18T02:49:51.170Z,0
2017-07-18T02:50:54.293Z,0
2017-07-18T02:51:56.718Z,0
2017-07-18T02:52:58.858Z,0
2017-07-18T02:54:01.994Z,0
2017-07-18T02:55:04.426Z,0
2017-07-18T02:56:06.526Z,0
2017-07-18T02:57:08.975Z,1
2017-07-18T02:58:11.742Z,1
2017-07-18T02:59:13.829Z,1
2017-07-18T03:00:16.640Z,1
2017-07-18T03:01:19.055Z,1
2017-07-18T03:02:22.184Z,1
2017-07-18T03:03:24.987Z,1
2017-07-18T03:04:27.767Z,1
2017-07-18T03:05:29.875Z,2
2017-07-18T03:06:32.655Z,2
2017-07-18T03:07:35.107Z,2
2017-07-18T03:08:37.198Z,2
2017-07-18T03:09:39.282Z,2
2017-07-18T03:10:41.736Z,2
2017-07-18T03:11:44.160Z,3
2017-07-18T03:12:46.940Z,3
2017-07-18T03:13:49.374Z,3
2017-07-18T03:14:51.800Z,3
2017-07-18T03:15:54.588Z,3
2017-07-18T03:16:56.692Z,4
2017-07-18T03:17:58.784Z,4
2017-07-18T03:19:01.583Z,4
2017-07-18T03:20:04.752Z,4
2017-07-18T03:21:07.513Z,5
2017-07-18T03:22:10.314Z,5
2017-07-18T03:23:12.411Z,5
2017-07-18T03:24:14.536Z,5
2017-07-18T03:25:16.625Z,6
2017-07-18T03:26:19.747Z,6
2017-07-18T03:27:22.172Z,6
2017-07-18T03:28:24.608Z,7
2017-07-18T03:29:26.691Z,7
2017-07-18T03:30:28.797Z,7
2017-07-18T03:31:30.879Z,7
2017-07-18T03:32:33.670Z,8
2017-07-18T03:33:36.111Z,8
2017-07-18T03:34:38.905Z,8
2017-07-18T03:35:41.689Z,9
2017-07-18T03:36:44.466Z,9
2017-07-18T03:37:46.904Z,9
2017-07-18T03:38:49.009Z,10
2017-07-18T03:39:51.429Z,10
2017-07-18T03:40:53.872Z,10
2017-07-18T03:41:56.670Z,11
2017-07-18T03:42:58.765Z,11
2017-07-18T03:44:01.217Z,11
2017-07-18T03:45:03.649Z,12
2017-07-18T03:46:06.430Z,12
2017-07-18T03:47:08.524Z,13
2017-07-18T03:48:10.978Z,13
2017-07-18T03:49:13.425Z,13
2017-07-18T03:50:15.856Z,14
2017-07-18T03:51:18.638Z,14
2017-07-18T03:52:21.429Z,14
2017-07-18T03:53:23.512Z,15
2017-07-18T03:54:26.977Z,15
2017-07-18T03:55:29.422Z,16
2017-07-18T03:56:31.525Z,16
2017-07-18T03:57:33.964Z,16
2017-07-18T03:58:37.087Z,17
2017-07-18T03:59:39.857Z,17
2017-07-18T04:00:42.989Z,17
2017-07-18T04:01:45.408Z,18
2017-07-18T04:02:48.220Z,18
2017-07-18T04:03:50.322Z,19
2017-07-18T04:04:53.103Z,19
2017-07-18T04:05:55.592Z,19
2017-07-18T04:06:57.706Z,20
2017-07-18T04:08:00.147Z,20
2017-07-18T04:09:03.271Z,20
2017-07-18T04:10:05.737Z,21
2017-07-18T04:11:08.837Z,21
2017-07-18T04:12:10.932Z,22
2017-07-18T04:13:13.042Z,22
2017-07-18T04:14:16.169Z,22
2017-07-18T04:15:18.280Z,23
2017-07-18T04:16:21.396Z,23
2017-07-18T04:17:23.491Z,23
2017-07-18T04:18:26.268Z,24
2017-07-18T04:19:28.699Z,24
2017-07-18T04:20:31.198Z,25
2017-07-18T04:21:33.313Z,25
2017-07-18T04:22:36.104Z,25
2017-07-18T04:23:38.581Z,26
2017-07-18T04:24:41.028Z,26
2017-07-18T04:25:43.473Z,26
2017-07-18T04:26:46.255Z,27
2017-07-18T04:27:48.691Z,27
2017-07-18T04:28:51.503Z,28
2017-07-18T04:29:53.594Z,28
2017-07-18T04:30:56.021Z,28
2017-07-18T04:31:58.809Z,29
2017-07-18T04:33:01.604Z,29
2017-07-18T04:34:03.713Z,29
2017-07-18T04:35:06.139Z,29
2017-07-18T04:36:08.639Z,29
2017-07-18T04:37:10.710Z,29
2017-07-18T04:38:13.172Z,30
2017-07-18T04:39:15.261Z,30
2017-07-18T04:40:17.368Z,31
2017-07-18T04:41:20.167Z,31
2017-07-18T04:42:22.602Z,31
2017-07-18T04:43:24.702Z,32
2017-07-18T04:44:26.812Z,32
2017-07-18T04:45:28.883Z,32
2017-07-18T04:46:31.002Z,33
2017-07-18T04:47:33.428Z,33
2017-07-18T04:48:35.877Z,33
2017-07-18T04:49:38.658Z,34
2017-07-18T04:50:41.441Z,34
2017-07-18T04:51:43.897Z,34
2017-07-18T04:52:46.364Z,35
2017-07-18T04:53:48.443Z,35
2017-07-18T04:54:50.565Z,35
2017-07-18T04:55:52.649Z,36
2017-07-18T04:56:55.443Z,36
2017-07-18T04:57:57.543Z,36
2017-07-18T04:58:59.981Z,37
2017-07-18T05:00:03.455Z,37
2017-07-18T05:01:05.896Z,37
2017-07-18T05:02:08.689Z,38
2017-07-18T05:03:10.782Z,38
2017-07-18T05:04:12.899Z,38
2017-07-18T05:05:15.012Z,39
2017-07-18T05:06:17.116Z,39
2017-07-18T05:07:19.905Z,39
2017-07-18T05:08:22.026Z,40
2017-07-18T05:09:24.107Z,40
2017-07-18T05:10:26.230Z,40
2017-07-18T05:11:29.042Z,41
2017-07-18T05:12:31.142Z,41
2017-07-18T05:13:33.597Z,41
2017-07-18T05:14:35.705Z,42
2017-07-18T05:15:38.157Z,42
2017-07-18T05:16:40.605Z,42
2017-07-18T05:17:42.702Z,43
2017-07-18T05:18:45.855Z,43
2017-07-18T05:19:48.289Z,43
2017-07-18T05:20:50.716Z,44
2017-07-18T05:21:52.806Z,44
2017-07-18T05:22:55.256Z,44
2017-07-18T05:23:57.348Z,45
2017-07-18T05:24:59.496Z,45
2017-07-18T05:26:01.571Z,45
2017-07-18T05:27:04.390Z,46
2017-07-18T05:28:07.181Z,46
2017-07-18T05:29:09.598Z,46
2017-07-18T05:30:12.085Z,47
2017-07-18T05:31:14.194Z,47
2017-07-18T05:32:16.628Z,48
2017-07-18T05:33:18.728Z,48
2017-07-18T05:34:20.820Z,48
2017-07-18T05:35:22.960Z,48
2017-07-18T05:36:25.054Z,49
2017-07-18T05:37:27.134Z,49
2017-07-18T05:38:29.270Z,49
2017-07-18T05:39:31.351Z,50
2017-07-18T05:40:33.827Z,50
2017-07-18T05:41:36.274Z,50
2017-07-18T05:42:38.384Z,51
2017-07-18T05:43:41.497Z,51
2017-07-18T05:44:43.964Z,51
2017-07-18T05:45:46.400Z,52
2017-07-18T05:46:49.180Z,52
2017-07-18T05:47:51.292Z,52
2017-07-18T05:48:53.382Z,53
2017-07-18T05:49:55.502Z,52
2017-07-18T05:50:57.602Z,52
2017-07-18T05:51:59.706Z,52
2017-07-18T05:53:02.852Z,53
2017-07-18T05:54:05.296Z,53
2017-07-18T05:55:08.184Z,53
2017-07-18T05:56:10.305Z,54
2017-07-18T05:57:12.401Z,54
2017-07-18T05:58:14.518Z,54
2017-07-18T05:59:16.956Z,55
2017-07-18T06:00:19.417Z,55
2017-07-18T06:01:21.499Z,55
2017-07-18T06:02:24.007Z,56
2017-07-18T06:03:26.102Z,56
2017-07-18T06:04:28.555Z,56
2017-07-18T06:05:30.999Z,57
2017-07-18T06:06:33.471Z,57
2017-07-18T06:07:35.585Z,57
2017-07-18T06:08:37.699Z,58
2017-07-18T06:09:40.112Z,58
2017-07-18T06:10:42.915Z,59
2017-07-18T06:11:45.006Z,59
2017-07-18T06:12:47.432Z,59
2017-07-18T06:13:49.538Z,61
2017-07-18T06:14:51.634Z,60
2017-07-18T06:15:54.088Z,61
2017-07-18T06:16:56.529Z,61
2017-07-18T06:17:58.634Z,61
2017-07-18T06:19:00.740Z,62
2017-07-18T06:20:03.963Z,63
2017-07-18T06:21:07.090Z,63
2017-07-18T06:22:09.578Z,64
2017-07-18T06:23:11.701Z,64
2017-07-18T06:24:14.496Z,64
2017-07-18T06:25:16.587Z,65
2017-07-18T06:26:19.035Z,65
2017-07-18T06:27:21.832Z,66
2017-07-18T06:28:23.976Z,66
2017-07-18T06:29:26.755Z,67
2017-07-18T06:30:28.870Z,67
2017-07-18T06:31:31.311Z,68
2017-07-18T06:32:33.440Z,69
2017-07-18T06:33:35.530Z,67
2017-07-18T06:34:37.964Z,68
2017-07-18T06:35:40.096Z,71
2017-07-18T06:36:42.542Z,74
2017-07-18T06:37:44.965Z,74
2017-07-18T06:38:47.075Z,77
2017-07-18T06:39:49.539Z,82
2017-07-18T06:40:52.003Z,88
2017-07-18T06:41:54.079Z,94
2017-07-18T06:42:56.188Z,96
2017-07-18T06:43:58.295Z,99
2017-07-18T06:45:00.403Z,95
2017-07-18T06:46:02.861Z,87
2017-07-18T06:47:05.316Z,78
2017-07-18T06:48:07.451Z,74
2017-07-18T06:49:09.586Z,78
2017-07-18T06:50:12.031Z,88
2017-07-18T06:51:14.148Z,89
2017-07-18T06:52:16.263Z,97
2017-07-18T06:53:18.691Z,92
2017-07-18T06:54:21.497Z,100
2017-07-18T06:55:23.596Z,102
2017-07-18T06:56:26.054Z,105
2017-07-18T06:57:28.155Z,111
2017-07-18T06:58:30.612Z,111
2017-07-18T06:59:33.111Z,116
2017-07-18T07:00:35.565Z,126
2017-07-18T07:01:38.335Z,118
2017-07-18T07:02:41.118Z,119
2017-07-18T07:03:43.253Z,115
2017-07-18T07:04:45.709Z,107
2017-07-18T07:05:48.151Z,103
2017-07-18T07:06:50.962Z,94
2017-07-18T07:07:53.050Z,90
2017-07-18T07:08:55.168Z,88
2017-07-18T07:09:57.284Z,83
2017-07-18T07:10:59.411Z,85
2017-07-18T07:12:01.515Z,88
2017-07-18T07:13:03.995Z,88
2017-07-18T07:14:06.107Z,86
2017-07-18T07:15:08.558Z,84
2017-07-18T07:16:10.688Z,84
2017-07-18T07:17:13.149Z,84
2017-07-18T07:18:15.966Z,91
2017-07-18T07:19:18.744Z,97
2017-07-18T07:20:21.234Z,103
2017-07-18T07:21:23.327Z,112
2017-07-18T07:22:25.465Z,120
2017-07-18T07:23:27.558Z,124
2017-07-18T07:24:29.721Z,125
2017-07-18T07:25:31.821Z,126
2017-07-18T07:26:34.955Z,126
2017-07-18T07:27:37.078Z,128
2017-07-18T07:28:39.524Z,130
2017-07-18T07:29:41.969Z,132
2017-07-18T07:30:44.437Z,138
2017-07-18T07:31:46.891Z,146
2017-07-18T07:32:49.014Z,149
2017-07-18T07:33:51.119Z,149
2017-07-18T07:34:53.567Z,147
2017-07-18T07:35:55.663Z,147
2017-07-18T07:36:58.142Z,147
2017-07-18T07:38:01.269Z,146
2017-07-18T07:39:03.702Z,146
2017-07-18T07:40:06.149Z,147
2017-07-18T07:41:08.965Z,148
2017-07-18T07:42:11.101Z,151
2017-07-18T07:43:13.205Z,154
2017-07-18T07:44:15.682Z,156
2017-07-18T07:45:18.130Z,154
2017-07-18T07:46:20.572Z,151
2017-07-18T07:47:22.669Z,140
2017-07-18T07:48:24.754Z,128
2017-07-18T07:49:26.872Z,117
2017-07-18T07:50:29.349Z,106
2017-07-18T07:51:31.784Z,100
2017-07-18T07:52:33.897Z,96
2017-07-18T07:53:36.017Z,88
2017-07-18T07:54:38.117Z,86
2017-07-18T07:55:40.552Z,89
2017-07-18T07:56:42.670Z,91
2017-07-18T07:57:45.480Z,93
2017-07-18T07:58:47.577Z,98
2017-07-18T07:59:50.016Z,104
2017-07-18T08:00:52.136Z,107
2017-07-18T08:01:54.939Z,115
2017-07-18T08:02:57.036Z,120
2017-07-18T08:03:59.146Z,125
2017-07-18T08:05:01.244Z,129
2017-07-18T08:06:03.737Z,135
2017-07-18T08:07:05.836Z,140
2017-07-18T08:08:07.946Z,140
2017-07-18T08:09:10.052Z,131
2017-07-18T08:10:12.488Z,122
2017-07-18T08:11:14.589Z,113
2017-07-18T08:12:17.047Z,106
2017-07-18T08:13:19.137Z,98
2017-07-18T08:14:21.230Z,92
2017-07-18T08:15:23.315Z,87
2017-07-18T08:16:25.407Z,82
2017-07-18T08:17:27.502Z,78
2017-07-18T08:18:29.602Z,76
2017-07-18T08:19:32.036Z,77
2017-07-18T08:20:34.153Z,79
2017-07-18T08:21:36.599Z,83
2017-07-18T08:22:39.044Z,87
2017-07-18T08:23:41.458Z,92
2017-07-18T08:24:43.570Z,97
2017-07-18T08:25:46.011Z,102
2017-07-18T08:26:48.100Z,105
2017-07-18T08:27:50.540Z,107
2017-07-18T08:28:52.651Z,111
2017-07-18T08:29:55.096Z,116
2017-07-18T08:30:57.182Z,125
2017-07-18T08:31:59.627Z,130
2017-07-18T08:33:02.097Z,137
2017-07-18T08:34:04.519Z,222
2017-07-18T08:35:06.993Z,503
2017-07-18T08:36:09.465Z,522
2017-07-18T08:37:11.554Z,410
2017-07-18T08:38:13.670Z,312
2017-07-18T08:39:15.743Z,271
2017-07-18T08:40:17.858Z,300
2017-07-18T08:41:19.951Z,273
2017-07-18T08:42:22.393Z,336
2017-07-18T08:43:24.486Z,487
2017-07-18T08:44:26.604Z,600
2017-07-18T08:45:28.692Z,637
2017-07-18T08:46:31.137Z,680
2017-07-18T08:47:33.254Z,736
2017-07-18T08:48:35.362Z,309
2017-07-18T08:49:37.462Z,308
2017-07-18T08:50:39.554Z,376
2017-07-18T08:51:41.652Z,223
2017-07-18T08:52:44.096Z,203
2017-07-18T08:53:46.214Z,177
2017-07-18T08:54:48.300Z,162
2017-07-18T08:55:50.771Z,151
2017-07-18T08:56:52.869Z,141
2017-07-18T08:57:55.326Z,132
2017-07-18T08:58:57.416Z,126
2017-07-18T08:59:59.541Z,120
2017-07-18T09:01:02.335Z,115
2017-07-18T09:02:05.106Z,111
2017-07-18T09:03:07.200Z,110
2017-07-18T09:04:09.623Z,110
2017-07-18T09:05:11.731Z,108
2017-07-18T09:06:13.844Z,108
2017-07-18T09:07:16.620Z,110
2017-07-18T09:08:19.053Z,114
2017-07-18T09:09:21.511Z,115
2017-07-18T09:10:23.604Z,113
2017-07-18T09:11:25.698Z,109
2017-07-18T09:12:27.795Z,107
2017-07-18T09:13:29.915Z,105
2017-07-18T09:14:32.346Z,110
2017-07-18T09:15:34.448Z,119
2017-07-18T09:16:36.549Z,130
2017-07-18T09:17:38.651Z,143
2017-07-18T09:18:41.079Z,153
2017-07-18T09:19:43.175Z,164
2017-07-18T09:20:45.301Z,175
2017-07-18T09:21:47.388Z,180
2017-07-18T09:22:49.492Z,183
2017-07-18T09:23:51.591Z,185
2017-07-18T09:24:53.698Z,188
2017-07-18T09:25:55.790Z,205
2017-07-18T09:26:58.562Z,213
2017-07-18T09:28:01.022Z,202
2017-07-18T09:29:03.116Z,202
2017-07-18T09:30:05.543Z,223
2017-07-18T09:31:07.655Z,376
2017-07-18T09:32:09.746Z,605
2017-07-18T09:33:11.845Z,678
2017-07-18T09:34:14.305Z,713
2017-07-18T09:35:16.586Z,718
2017-07-18T09:36:18.686Z,680
2017-07-18T09:37:21.512Z,422
2017-07-18T09:38:23.607Z,598
2017-07-18T09:39:26.046Z,426
2017-07-18T09:40:28.141Z,333
2017-07-18T09:41:30.251Z,251
2017-07-18T09:42:32.353Z,222
2017-07-18T09:43:34.788Z,203
2017-07-18T09:44:36.876Z,191
2017-07-18T09:45:39.353Z,176
2017-07-18T09:46:41.462Z,161
2017-07-18T09:47:43.571Z,144
2017-07-18T09:48:45.673Z,141
2017-07-18T09:49:47.770Z,141
2017-07-18T09:50:49.895Z,142
2017-07-18T09:51:51.994Z,143
2017-07-18T09:52:54.090Z,145
2017-07-18T09:53:56.213Z,146
2017-07-18T09:54:58.636Z,152
2017-07-18T09:56:01.084Z,163
2017-07-18T09:57:03.192Z,174
2017-07-18T09:58:05.636Z,177
2017-07-18T09:59:07.729Z,188
2017-07-18T10:00:10.175Z,193
2017-07-18T10:01:12.287Z,217
2017-07-18T10:02:14.723Z,269
2017-07-18T10:03:17.154Z,230
2017-07-18T10:04:19.268Z,230
2017-07-18T10:05:21.714Z,232
2017-07-18T10:06:23.813Z,231
2017-07-18T10:07:25.925Z,231
2017-07-18T10:08:28.026Z,253
2017-07-18T10:09:30.113Z,301
2017-07-18T10:10:32.221Z,252
2017-07-18T10:11:34.314Z,250
2017-07-18T10:12:36.477Z,248
2017-07-18T10:13:38.566Z,237
2017-07-18T10:14:40.677Z,230
2017-07-18T10:15:42.764Z,235
2017-07-18T10:16:44.873Z,236
2017-07-18T10:17:47.006Z,246
2017-07-18T10:18:49.448Z,263
2017-07-18T10:19:51.547Z,302
2017-07-18T10:20:53.650Z,516
2017-07-18T10:21:55.738Z,344
2017-07-18T10:22:57.838Z,390
2017-07-18T10:24:00.281Z,828
2017-07-18T10:25:02.735Z,847
2017-07-18T10:26:04.829Z,709
2017-07-18T10:27:07.250Z,435
2017-07-18T10:28:09.365Z,441
2017-07-18T10:29:11.462Z,440
2017-07-18T10:30:13.581Z,354
2017-07-18T10:31:16.017Z,620
2017-07-18T10:32:18.123Z,275
2017-07-18T10:33:20.231Z,244
2017-07-18T10:34:22.668Z,232
2017-07-18T10:35:24.777Z,220
2017-07-18T10:36:26.897Z,209
2017-07-18T10:37:29.336Z,202
2017-07-18T10:38:31.433Z,195
2017-07-18T10:39:33.530Z,184
2017-07-18T10:40:35.990Z,169
2017-07-18T10:41:38.766Z,172
2017-07-18T10:42:40.855Z,182
2017-07-18T10:43:43.011Z,198
2017-07-18T10:44:45.454Z,202
2017-07-18T10:45:48.225Z,215
2017-07-18T10:46:50.671Z,243
2017-07-18T10:47:52.781Z,263
2017-07-18T10:48:54.886Z,275
2017-07-18T10:49:56.983Z,289
2017-07-18T10:50:59.082Z,262
2017-07-18T10:52:02.229Z,247
2017-07-18T10:53:05.009Z,245
2017-07-18T10:54:07.118Z,247
2017-07-18T10:55:09.571Z,266
2017-07-18T10:56:11.654Z,369
2017-07-18T10:57:14.106Z,866
2017-07-18T10:58:16.576Z,607
2017-07-18T10:59:19.371Z,770
2017-07-18T11:00:21.458Z,526
2017-07-18T11:01:23.586Z,346
2017-07-18T11:02:25.696Z,471
2017-07-18T11:03:27.813Z,408
2017-07-18T11:04:29.910Z,490
2017-07-18T11:05:33.042Z,376
2017-07-18T11:06:35.502Z,357
2017-07-18T11:07:37.587Z,319
2017-07-18T11:08:40.389Z,307
2017-07-18T11:09:42.522Z,296
2017-07-18T11:10:44.651Z,287
2017-07-18T11:11:46.745Z,292
2017-07-18T11:12:48.857Z,281
2017-07-18T11:13:50.970Z,291
2017-07-18T11:14:53.397Z,311
2017-07-18T11:15:55.839Z,339
2017-07-18T11:16:58.290Z,1004
2017-07-18T11:18:00.401Z,876
2017-07-18T11:19:02.831Z,533
2017-07-18T11:20:05.119Z,357
2017-07-18T11:21:07.566Z,354
2017-07-18T11:22:09.673Z,707
2017-07-18T11:23:11.787Z,467
2017-07-18T11:24:14.248Z,759
2017-07-18T11:25:16.702Z,666
2017-07-18T11:26:18.778Z,328
2017-07-18T11:27:20.878Z,430
2017-07-18T11:28:23.342Z,867
2017-07-18T11:29:25.438Z,732
2017-07-18T11:30:27.885Z,402
2017-07-18T11:31:29.989Z,346
2017-07-18T11:32:32.100Z,301
2017-07-18T11:33:34.551Z,280
2017-07-18T11:34:36.672Z,287
2017-07-18T11:35:38.771Z,296
2017-07-18T11:36:40.884Z,326
2017-07-18T11:37:42.979Z,771
2017-07-18T11:38:45.105Z,674
2017-07-18T11:39:47.201Z,251
2017-07-18T11:40:49.321Z,533
2017-07-18T11:41:51.427Z,694
2017-07-18T11:42:53.530Z,608
2017-07-18T11:43:55.644Z,670
2017-07-18T11:44:58.443Z,775
2017-07-18T11:46:00.890Z,732
2017-07-18T11:47:03.364Z,625
2017-07-18T11:48:05.457Z,466
2017-07-18T11:49:07.583Z,917
2017-07-18T11:50:10.709Z,563
2017-07-18T11:51:12.823Z,331
2017-07-18T11:52:15.267Z,459
2017-07-18T11:53:17.718Z,259
2017-07-18T11:54:19.819Z,241
2017-07-18T11:55:22.262Z,239
2017-07-18T11:56:24.373Z,252
2017-07-18T11:57:26.849Z,437
2017-07-18T11:58:28.949Z,758
2017-07-18T11:59:31.099Z,482
2017-07-18T12:00:33.194Z,338
2017-07-18T12:01:35.302Z,510
2017-07-18T12:02:37.414Z,767
2017-07-18T12:03:39.522Z,575
2017-07-18T12:04:41.638Z,673
2017-07-18T12:05:43.751Z,650
2017-07-18T12:06:45.911Z,693
2017-07-18T12:07:48.386Z,779
2017-07-18T12:08:50.495Z,630
2017-07-18T12:09:52.601Z,638
2017-07-18T12:10:55.084Z,679
2017-07-18T12:11:57.551Z,670
2017-07-18T12:13:00.010Z,734
2017-07-18T12:14:02.112Z,597
2017-07-18T12:15:04.232Z,443
2017-07-18T12:16:06.702Z,858
2017-07-18T12:17:09.508Z,361
2017-07-18T12:18:11.951Z,267
2017-07-18T12:19:14.066Z,262
2017-07-18T12:20:16.178Z,239
2017-07-18T12:21:18.271Z,246
2017-07-18T12:22:20.395Z,372
2017-07-18T12:23:22.512Z,270
2017-07-18T12:24:24.611Z,246
2017-07-18T12:25:27.051Z,232
2017-07-18T12:26:29.502Z,231
2017-07-18T12:27:31.599Z,408
2017-07-18T12:28:33.735Z,846
2017-07-18T12:29:36.170Z,299
2017-07-18T12:30:38.615Z,454
2017-07-18T12:31:41.412Z,437
2017-07-18T12:32:43.512Z,353
2017-07-18T12:33:45.972Z,838
2017-07-18T12:34:48.076Z,764
2017-07-18T12:35:50.173Z,421
2017-07-18T12:36:52.610Z,316
2017-07-18T12:37:54.725Z,675
2017-07-18T12:38:56.876Z,688
2017-07-18T12:39:59.311Z,700
2017-07-18T12:41:01.418Z,690
2017-07-18T12:42:03.536Z,663
2017-07-18T12:43:05.634Z,709
2017-07-18T12:44:08.088Z,767
2017-07-18T12:45:10.891Z,767
2017-07-18T12:46:12.988Z,772
2017-07-18T12:47:15.463Z,828
2017-07-18T12:48:17.582Z,791
2017-07-18T12:49:19.692Z,708
2017-07-18T12:50:21.798Z,728
2017-07-18T12:51:23.928Z,866
2017-07-18T12:52:26.031Z,466
2017-07-18T12:53:28.169Z,619
2017-07-18T12:54:30.282Z,649
2017-07-18T12:55:32.404Z,628
2017-07-18T12:56:34.500Z,502
2017-07-18T12:57:36.620Z,564
2017-07-18T12:58:38.742Z,595
2017-07-18T12:59:40.864Z,581
2017-07-18T13:00:42.986Z,514
2017-07-18T13:01:45.092Z,525
2017-07-18T13:02:47.196Z,601
2017-07-18T13:03:49.668Z,591
2017-07-18T13:04:52.462Z,611
2017-07-18T13:05:54.607Z,622
2017-07-18T13:06:57.051Z,318
2017-07-18T13:07:59.507Z,566
2017-07-18T13:09:01.632Z,506
2017-07-18T13:10:03.756Z,545
2017-07-18T13:11:05.910Z,565
2017-07-18T13:12:08.729Z,621
2017-07-18T13:13:10.830Z,600
2017-07-18T13:14:12.949Z,615
2017-07-18T13:15:15.040Z,557
2017-07-18T13:16:17.616Z,491
2017-07-18T13:17:19.738Z,556
2017-07-18T13:18:21.855Z,617
2017-07-18T13:19:23.968Z,598
2017-07-18T13:20:26.077Z,557
2017-07-18T13:21:28.202Z,591
2017-07-18T13:22:30.683Z,588
2017-07-18T13:23:33.147Z,582
2017-07-18T13:24:35.266Z,536
2017-07-18T13:25:37.385Z,512
2017-07-18T13:26:39.853Z,576
2017-07-18T13:27:42.303Z,609
2017-07-18T13:28:44.812Z,575
2017-07-18T13:29:47.249Z,577
2017-07-18T13:30:49.366Z,543
2017-07-18T13:31:51.483Z,508
2017-07-18T13:32:53.996Z,510
2017-07-18T13:33:56.107Z,513
2017-07-18T13:34:58.565Z,531
2017-07-18T13:36:00.682Z,526
2017-07-18T13:37:03.127Z,527
2017-07-18T13:38:05.232Z,549
2017-07-18T13:39:08.045Z,541
2017-07-18T13:40:10.494Z,538
2017-07-18T13:41:12.960Z,568
2017-07-18T13:42:15.407Z,640
2017-07-18T13:43:17.942Z,557
2017-07-18T13:44:20.060Z,465
2017-07-18T13:45:22.184Z,503
2017-07-18T13:46:24.300Z,510
2017-07-18T13:47:26.444Z,517
2017-07-18T13:48:28.884Z,561
2017-07-18T13:49:31.380Z,566
2017-07-18T13:50:33.504Z,566
2017-07-18T13:51:35.959Z,515
2017-07-18T13:52:38.069Z,450
2017-07-18T13:53:40.192Z,449
2017-07-18T13:54:42.316Z,470
2017-07-18T13:55:44.435Z,437
2017-07-18T13:56:46.889Z,460
2017-07-18T13:57:49.360Z,467
2017-07-18T13:58:51.485Z,406
2017-07-18T13:59:53.942Z,378
2017-07-18T14:00:56.051Z,412
2017-07-18T14:01:58.520Z,459
2017-07-18T14:03:00.641Z,428
2017-07-18T14:04:03.461Z,420
2017-07-18T14:05:05.562Z,406
2017-07-18T14:06:07.671Z,379
2017-07-18T14:07:10.471Z,410
2017-07-18T14:08:12.595Z,424
2017-07-18T14:09:14.723Z,391
2017-07-18T14:10:16.836Z,381
2017-07-18T14:11:18.963Z,378
2017-07-18T14:12:21.086Z,398
2017-07-18T14:13:23.217Z,398
2017-07-18T14:14:25.347Z,416
2017-07-18T14:15:27.466Z,415
2017-07-18T14:17:27.306Z,383
2017-07-18T14:18:29.708Z,365
2017-07-18T14:19:31.757Z,360
2017-07-18T14:20:34.158Z,383
2017-07-18T14:21:36.893Z,402
2017-07-18T14:22:38.952Z,413
2017-07-18T14:23:41.346Z,420
2017-07-18T14:24:43.405Z,442
2017-07-18T14:25:45.462Z,444
2017-07-18T14:26:47.852Z,398
2017-07-18T14:27:49.913Z,399
2017-07-18T14:28:51.989Z,420
2017-07-18T14:29:54.040Z,407
2017-07-18T14:30:56.439Z,428
2017-07-18T14:31:58.828Z,392
2017-07-18T14:33:01.232Z,371
2017-07-18T14:34:03.293Z,356
2017-07-18T14:35:05.358Z,338
2017-07-18T14:36:07.410Z,334
2017-07-18T14:37:10.151Z,336
2017-07-18T14:38:12.207Z,359
2017-07-18T14:39:14.615Z,345
2017-07-18T14:40:17.344Z,362
2017-07-18T14:41:19.398Z,358
2017-07-18T14:42:22.151Z,332